Terminal Aerodrome Forecast
Issued by NWS

Home | Current Version | Previous Version | Text Only | Print | Product List | Glossary On
Versions: 1 2 3 4 5 6 7 8 9 10 11 12 13 14 15 16 17 18
000
FTUS44 KMAF 182300
TAFCNM
TAF
KCNM 182326Z 1900/1924 14012G20KT P6SM SCT250
     FM190300 15009KT P6SM BKN120 PROB30 1909/1915 P6SM -TSRA
      SCT030CB BKN250
     FM191500 14007KT P6SM -TSRA BKN040CB=

USA.gov is the U.S. government's official web portal to all federal, state and local government web resources and services.